createdAt,value
2023-02-26T00:01:13.852Z,2.08
2023-02-26T00:03:41.201Z,2.30
2023-02-26T00:06:08.652Z,2.15
2023-02-26T00:08:35.856Z,2.20
2023-02-26T00:11:03.134Z,2.08
2023-02-26T00:13:30.831Z,2.30
2023-02-26T00:15:59.509Z,2.20
2023-02-26T00:18:26.680Z,2.40
2023-02-26T00:20:54.592Z,2.25
2023-02-26T00:23:21.779Z,2.80
2023-02-26T00:25:48.957Z,2.05
2023-02-26T00:28:16.190Z,2.25
2023-02-26T00:30:43.409Z,2.35
2023-02-26T00:33:10.773Z,2.03
2023-02-26T00:35:38.015Z,2.10
2023-02-26T00:38:06.165Z,2.42
2023-02-26T00:40:39.400Z,2.13
2023-02-26T00:43:06.998Z,2.03
2023-02-26T00:45:36.014Z,1.85
2023-02-26T00:48:11.845Z,2.05
2023-02-26T00:50:39.010Z,2.03
2023-02-26T00:53:10.869Z,2.33
2023-02-26T00:55:38.543Z,1.88
2023-02-26T00:58:05.658Z,1.85
2023-02-26T01:00:32.680Z,1.73
2023-02-26T01:02:59.853Z,1.85
2023-02-26T01:05:27.261Z,2.17
2023-02-26T01:07:57.387Z,2.10
2023-02-26T01:10:24.647Z,1.75
2023-02-26T01:12:51.958Z,2.03
2023-02-26T01:15:25.426Z,2.00
2023-02-26T01:17:55.249Z,1.58
2023-02-26T01:20:23.744Z,1.90
2023-02-26T01:23:00.014Z,1.60
2023-02-26T01:25:28.315Z,1.63
2023-02-26T01:27:57.510Z,1.80
2023-02-26T01:30:25.313Z,1.70
2023-02-26T01:33:00.190Z,1.80
2023-02-26T01:35:33.450Z,1.88
2023-02-26T01:38:20.830Z,1.90
2023-02-26T01:41:24.709Z,1.98
2023-02-26T01:43:53.529Z,2.00
2023-02-26T01:46:27.379Z,1.95
2023-02-26T01:48:55.833Z,1.92
2023-02-26T01:51:52.452Z,2.35
2023-02-26T01:54:23.548Z,1.98
2023-02-26T01:56:57.895Z,2.67
2023-02-26T01:59:25.116Z,1.98
2023-02-26T02:01:53.129Z,2.00
2023-02-26T02:04:20.237Z,2.05
2023-02-26T02:06:47.448Z,2.08
2023-02-26T02:09:14.595Z,2.00
2023-02-26T02:11:47.558Z,2.05
2023-02-26T02:14:33.455Z,2.67
2023-02-26T02:17:02.239Z,2.30
2023-02-26T02:19:47.621Z,2.63
2023-02-26T02:22:33.161Z,2.38
2023-02-26T02:25:13.098Z,2.53
2023-02-26T02:27:49.499Z,2.15
2023-02-26T02:30:27.171Z,2.58
2023-02-26T02:33:00.968Z,2.47
2023-02-26T02:35:32.726Z,2.38
2023-02-26T02:38:10.311Z,3.00
2023-02-26T02:40:38.173Z,2.50
2023-02-26T02:43:07.124Z,2.22
2023-02-26T02:45:44.643Z,2.67
2023-02-26T02:48:17.748Z,2.30
2023-02-26T02:50:46.590Z,2.85
2023-02-26T02:53:24.731Z,2.60
2023-02-26T02:55:54.835Z,2.60
2023-02-26T02:58:23.248Z,2.50
2023-02-26T03:00:51.058Z,2.90
2023-02-26T03:03:24.334Z,2.85
2023-02-26T03:05:51.404Z,2.90
2023-02-26T03:08:19.492Z,2.95
2023-02-26T03:10:46.561Z,2.83
2023-02-26T03:13:21.144Z,2.95
2023-02-26T03:15:57.238Z,3.00
2023-02-26T03:18:29.898Z,3.30
2023-02-26T03:20:59.048Z,2.60
2023-02-26T03:23:28.973Z,2.90
2023-02-26T03:25:59.414Z,3.30
2023-02-26T03:31:06.013Z,2.45
2023-02-26T03:33:36.186Z,3.08
2023-02-26T03:36:03.216Z,3.03
2023-02-26T03:38:50.490Z,3.05
2023-02-26T03:41:28.510Z,3.50
2023-02-26T03:43:56.577Z,3.22
2023-02-26T03:46:34.885Z,2.63
2023-02-26T03:49:02.981Z,2.70
2023-02-26T03:51:30.107Z,2.88
2023-02-26T03:54:08.958Z,2.55
2023-02-26T03:56:38.254Z,2.78
2023-02-26T03:59:05.301Z,2.60
2023-02-26T04:01:34.953Z,2.85
2023-02-26T04:04:06.762Z,2.40
2023-02-26T04:06:36.901Z,2.47
2023-02-26T04:09:04.205Z,2.70
2023-02-26T04:11:31.262Z,2.65
2023-02-26T04:13:58.384Z,3.15
2023-02-26T04:16:25.629Z,2.13
2023-02-26T04:18:53.038Z,2.42
2023-02-26T04:21:21.460Z,2.30
2023-02-26T04:23:48.637Z,2.30
2023-02-26T04:26:15.712Z,2.40
2023-02-26T04:28:42.890Z,2.50
2023-02-26T04:31:12.775Z,2.17
2023-02-26T04:33:39.892Z,2.33
2023-02-26T04:36:07.206Z,2.45
2023-02-26T04:38:34.366Z,2.08
2023-02-26T04:41:01.399Z,2.00
2023-02-26T04:43:28.554Z,2.20
2023-02-26T04:45:55.848Z,2.33
2023-02-26T04:48:23.026Z,2.13
2023-02-26T04:50:50.094Z,2.13
2023-02-26T04:53:17.248Z,2.15
2023-02-26T04:55:44.414Z,2.03
2023-02-26T04:58:11.565Z,2.22
2023-02-26T05:00:41.498Z,2.20
2023-02-26T05:03:10.035Z,1.75
2023-02-26T05:05:37.132Z,1.95
2023-02-26T05:08:04.169Z,2.00
2023-02-26T05:10:31.272Z,2.30
2023-02-26T05:12:58.382Z,1.92
2023-02-26T05:15:25.490Z,2.33
2023-02-26T05:17:52.519Z,2.03
2023-02-26T05:20:19.723Z,1.90
2023-02-26T05:22:46.821Z,2.10
2023-02-26T05:25:13.977Z,1.80
2023-02-26T05:27:42.480Z,1.90
2023-02-26T05:30:10.157Z,2.28
2023-02-26T05:32:37.246Z,2.08
2023-02-26T05:35:04.493Z,2.08
2023-02-26T05:37:31.601Z,2.20
2023-02-26T05:39:59.026Z,2.08
2023-02-26T05:42:29.344Z,2.30
2023-02-26T05:44:57.727Z,1.75
2023-02-26T05:47:25.311Z,1.80
2023-02-26T05:49:52.404Z,1.50
2023-02-26T05:52:19.427Z,1.73
2023-02-26T05:54:46.521Z,2.08
2023-02-26T05:57:13.631Z,2.03
2023-02-26T05:59:40.975Z,2.35
2023-02-26T06:02:08.215Z,2.08
2023-02-26T06:04:35.653Z,2.72
2023-02-26T06:07:02.817Z,2.00
2023-02-26T06:09:30.070Z,1.83
2023-02-26T06:11:57.409Z,1.75
2023-02-26T06:14:24.495Z,1.77
2023-02-26T06:16:51.573Z,1.90
2023-02-26T06:19:18.798Z,2.20
2023-02-26T06:21:45.873Z,1.70
2023-02-26T06:24:12.931Z,1.98
2023-02-26T06:26:40.028Z,2.13
2023-02-26T06:29:08.151Z,2.35
2023-02-26T06:31:35.308Z,3.00
2023-02-26T06:34:02.403Z,2.38
2023-02-26T06:36:29.455Z,2.35
2023-02-26T06:38:56.580Z,2.50
2023-02-26T06:41:23.664Z,2.53
2023-02-26T06:43:50.866Z,2.47
2023-02-26T06:46:18.061Z,2.40
2023-02-26T06:48:45.164Z,2.50
2023-02-26T06:51:12.286Z,1.77
2023-02-26T06:53:39.319Z,2.40
2023-02-26T06:56:06.502Z,2.10
2023-02-26T06:58:33.734Z,2.60
2023-02-26T07:01:00.940Z,2.25
2023-02-26T07:03:28.116Z,2.38
2023-02-26T07:05:55.134Z,2.70
2023-02-26T07:08:22.210Z,2.50
2023-02-26T07:10:49.584Z,2.10
2023-02-26T07:13:17.266Z,2.10
2023-02-26T07:15:46.265Z,1.98
2023-02-26T07:18:14.642Z,1.83
2023-02-26T07:20:42.766Z,2.05
2023-02-26T07:23:09.939Z,2.75
2023-02-26T07:25:37.491Z,2.80
2023-02-26T07:28:05.092Z,2.30
2023-02-26T07:30:32.600Z,3.35
2023-02-26T07:32:59.788Z,2.05
2023-02-26T07:35:31.038Z,2.45
2023-02-26T07:38:12.932Z,2.15
2023-02-26T07:40:40.053Z,1.88
2023-02-26T07:43:07.175Z,2.30
2023-02-26T07:45:34.196Z,1.95
2023-02-26T07:48:01.403Z,2.38
2023-02-26T07:50:28.667Z,2.22
2023-02-26T07:52:55.733Z,2.70
2023-02-26T07:55:22.823Z,2.35
2023-02-26T07:57:50.171Z,2.05
2023-02-26T08:00:17.645Z,1.48
2023-02-26T08:02:44.662Z,2.08
2023-02-26T08:05:11.874Z,1.63
2023-02-26T08:07:38.986Z,1.60
2023-02-26T08:10:06.232Z,2.10
2023-02-26T08:12:33.311Z,1.90
2023-02-26T08:15:00.342Z,1.90
2023-02-26T08:17:27.404Z,1.75
2023-02-26T08:19:54.461Z,1.85
2023-02-26T08:22:22.116Z,1.40
2023-02-26T08:24:49.182Z,1.75
2023-02-26T08:27:16.272Z,1.60
2023-02-26T08:29:46.183Z,1.40
2023-02-26T08:32:13.635Z,1.38
2023-02-26T08:34:41.030Z,1.77
2023-02-26T08:37:11.491Z,2.03
2023-02-26T08:39:38.976Z,1.27
2023-02-26T08:42:06.599Z,1.30
2023-02-26T08:44:33.775Z,1.60
2023-02-26T08:47:00.974Z,1.63
2023-02-26T08:49:28.147Z,1.92
2023-02-26T08:51:55.254Z,1.40
2023-02-26T08:54:22.282Z,1.40
2023-02-26T08:56:49.409Z,1.42
2023-02-26T08:59:16.544Z,1.30
2023-02-26T09:01:43.758Z,1.75
2023-02-26T09:04:10.769Z,1.10
2023-02-26T09:06:37.855Z,1.20
2023-02-26T09:09:04.941Z,1.27
2023-02-26T09:11:32.538Z,1.42
2023-02-26T09:13:59.692Z,1.33
2023-02-26T09:16:27.368Z,1.67
2023-02-26T09:18:54.551Z,1.42
2023-02-26T09:21:21.555Z,1.40
2023-02-26T09:23:48.641Z,1.50
2023-02-26T09:26:15.699Z,1.42
2023-02-26T09:28:42.813Z,1.50
2023-02-26T09:31:10.021Z,1.70
2023-02-26T09:33:37.277Z,1.50
2023-02-26T09:36:04.470Z,1.38
2023-02-26T09:38:31.551Z,1.55
2023-02-26T09:41:05.858Z,1.20
2023-02-26T09:43:32.864Z,1.42
2023-02-26T09:46:01.766Z,1.25
2023-02-26T09:48:28.895Z,1.38
2023-02-26T09:50:57.032Z,1.25
2023-02-26T09:53:31.484Z,1.30
2023-02-26T09:56:02.835Z,1.23
2023-02-26T09:58:39.526Z,1.30
2023-02-26T10:01:06.596Z,1.35
2023-02-26T10:03:33.633Z,1.42
2023-02-26T10:06:23.092Z,1.00
2023-02-26T10:09:19.667Z,1.13
2023-02-26T10:11:52.567Z,1.40
2023-02-26T10:14:24.932Z,1.35
2023-02-26T10:16:53.077Z,1.40
2023-02-26T10:19:20.954Z,1.13
2023-02-26T10:21:48.033Z,1.00
2023-02-26T10:24:16.540Z,1.45
2023-02-26T10:26:47.562Z,1.13
2023-02-26T10:29:33.518Z,1.25
2023-02-26T10:32:03.733Z,1.30
2023-02-26T10:34:43.262Z,1.15
2023-02-26T10:37:22.594Z,1.45
2023-02-26T10:40:01.835Z,1.20
2023-02-26T10:42:30.602Z,1.20
2023-02-26T10:45:16.056Z,1.33
2023-02-26T10:47:51.730Z,1.50
2023-02-26T10:50:19.064Z,1.75
2023-02-26T10:52:46.623Z,1.67
2023-02-26T10:55:32.535Z,1.00
2023-02-26T10:57:59.595Z,1.23
2023-02-26T11:00:26.694Z,1.25
2023-02-26T11:02:54.283Z,1.33
2023-02-26T11:05:25.431Z,1.42
2023-02-26T11:07:56.554Z,1.10
2023-02-26T11:10:24.746Z,1.13
2023-02-26T11:12:52.890Z,1.10
2023-02-26T11:15:24.149Z,1.20
2023-02-26T11:17:54.292Z,1.13
2023-02-26T11:20:31.088Z,1.50
2023-02-26T11:22:58.555Z,0.90
2023-02-26T11:25:26.092Z,1.05
2023-02-26T11:27:56.571Z,1.50
2023-02-26T11:30:25.924Z,1.00
2023-02-26T11:32:53.759Z,0.85
2023-02-26T11:35:21.366Z,1.52
2023-02-26T11:37:49.314Z,1.40
2023-02-26T11:40:22.722Z,1.10
2023-02-26T11:42:56.576Z,1.40
2023-02-26T11:45:24.311Z,1.58
2023-02-26T11:48:02.828Z,1.40
2023-02-26T11:50:30.189Z,1.42
2023-02-26T11:52:57.928Z,1.30
2023-02-26T11:55:29.112Z,1.50
2023-02-26T11:57:56.539Z,1.40
2023-02-26T12:00:30.716Z,1.20
2023-02-26T12:03:02.411Z,1.05
2023-02-26T12:05:29.567Z,1.80
2023-02-26T12:07:56.683Z,1.50
2023-02-26T12:10:26.693Z,1.05
2023-02-26T12:13:01.995Z,1.30
2023-02-26T12:15:33.432Z,1.33
2023-02-26T12:18:00.588Z,1.40
2023-02-26T12:20:28.928Z,1.52
2023-02-26T12:23:14.738Z,1.25
2023-02-26T12:26:00.733Z,1.27
2023-02-26T12:28:34.008Z,0.90
2023-02-26T12:31:16.604Z,1.90
2023-02-26T12:33:43.710Z,1.40
2023-02-26T12:36:28.353Z,1.95
2023-02-26T12:39:12.853Z,1.30
2023-02-26T12:41:58.242Z,1.15
2023-02-26T12:44:43.898Z,1.20
2023-02-26T12:47:19.150Z,1.00
2023-02-26T12:49:49.268Z,1.00
2023-02-26T12:52:35.648Z,1.40
2023-02-26T12:55:02.679Z,1.27
2023-02-26T12:57:35.599Z,1.10
2023-02-26T13:00:12.838Z,1.30
2023-02-26T13:02:39.900Z,1.60
2023-02-26T13:05:10.797Z,1.05
2023-02-26T13:07:49.986Z,1.25
2023-02-26T13:10:20.140Z,1.63
2023-02-26T13:13:02.180Z,1.35
2023-02-26T13:15:41.182Z,1.35
2023-02-26T13:18:11.325Z,1.20
2023-02-26T13:20:38.531Z,1.00
2023-02-26T13:23:10.184Z,0.80
2023-02-26T13:25:37.304Z,0.70
2023-02-26T13:28:05.753Z,0.80
2023-02-26T13:30:37.279Z,1.45
2023-02-26T13:33:07.102Z,0.88
2023-02-26T13:35:34.866Z,0.75
2023-02-26T13:38:02.948Z,1.00
2023-02-26T13:40:30.185Z,1.02
2023-02-26T13:42:57.266Z,1.10
2023-02-26T13:45:24.258Z,0.85
2023-02-26T13:48:04.670Z,1.95
2023-02-26T13:50:43.692Z,1.00
2023-02-26T13:53:28.123Z,0.82
2023-02-26T13:55:55.453Z,0.63
2023-02-26T13:58:35.900Z,1.05
2023-02-26T14:01:08.890Z,1.25
2023-02-26T14:03:37.227Z,0.80
2023-02-26T14:06:27.628Z,0.88
2023-02-26T14:08:55.884Z,0.90
2023-02-26T14:11:32.141Z,0.80
2023-02-26T14:14:08.458Z,0.60
2023-02-26T14:16:35.782Z,1.02
2023-02-26T14:19:06.597Z,0.80
2023-02-26T14:21:33.602Z,0.82
2023-02-26T14:24:21.474Z,1.20
2023-02-26T14:26:49.380Z,1.15
2023-02-26T14:29:27.428Z,1.30
2023-02-26T14:31:55.856Z,1.35
2023-02-26T14:34:27.147Z,1.10
2023-02-26T14:36:54.971Z,1.10
2023-02-26T14:39:26.430Z,1.00
2023-02-26T14:42:04.698Z,1.30
2023-02-26T14:44:33.478Z,1.23
2023-02-26T14:47:00.514Z,0.73
2023-02-26T14:49:31.902Z,1.40
2023-02-26T14:52:18.015Z,1.30
2023-02-26T14:55:08.050Z,1.10
2023-02-26T14:57:44.737Z,1.50
2023-02-26T15:00:41.138Z,1.08
2023-02-26T15:03:08.512Z,0.90
2023-02-26T15:05:41.523Z,1.20
2023-02-26T15:08:13.019Z,1.20
2023-02-26T15:10:40.137Z,1.00
2023-02-26T15:13:07.188Z,0.75
2023-02-26T15:15:39.418Z,0.82
2023-02-26T15:18:07.273Z,0.90
2023-02-26T15:20:34.329Z,0.77
2023-02-26T15:23:20.189Z,1.08
2023-02-26T15:25:47.864Z,0.80
2023-02-26T15:28:24.635Z,0.93
2023-02-26T15:30:51.794Z,0.90
2023-02-26T15:33:20.422Z,0.95
2023-02-26T15:35:51.860Z,0.98
2023-02-26T15:38:18.989Z,2.10
2023-02-26T15:40:46.022Z,3.83
2023-02-26T15:43:15.321Z,1.40
2023-02-26T15:45:43.286Z,1.00
2023-02-26T15:48:13.420Z,1.00
2023-02-26T15:50:45.372Z,0.80
2023-02-26T15:53:13.973Z,1.00
2023-02-26T15:55:44.283Z,0.90
2023-02-26T15:58:12.524Z,0.70
2023-02-26T16:00:39.852Z,0.77
2023-02-26T16:03:07.060Z,0.80
2023-02-26T16:05:34.271Z,1.60
2023-02-26T16:08:01.434Z,1.30
2023-02-26T16:10:39.542Z,0.90
2023-02-26T16:13:07.032Z,1.10
2023-02-26T16:15:35.370Z,1.30
2023-02-26T16:18:03.306Z,1.20
2023-02-26T16:20:38.406Z,1.20
2023-02-26T16:23:25.870Z,1.10
2023-02-26T16:25:53.521Z,1.50
2023-02-26T16:28:45.782Z,1.20
2023-02-26T16:31:20.372Z,1.33
2023-02-26T16:33:53.760Z,1.23
2023-02-26T16:36:24.654Z,0.95
2023-02-26T16:39:01.271Z,1.10
2023-02-26T16:41:30.405Z,1.42
2023-02-26T16:43:58.727Z,1.42
2023-02-26T16:46:34.634Z,1.25
2023-02-26T16:49:11.136Z,1.35
2023-02-26T16:51:39.125Z,1.40
2023-02-26T16:54:16.392Z,1.20
2023-02-26T16:56:43.866Z,2.00
2023-02-26T16:59:24.150Z,1.60
2023-02-26T17:01:51.679Z,1.50
2023-02-26T17:04:19.132Z,1.50
2023-02-26T17:06:50.171Z,2.00
2023-02-26T17:09:27.979Z,3.55
2023-02-26T17:12:04.254Z,1.70
2023-02-26T17:14:32.466Z,1.80
2023-02-26T17:16:59.761Z,1.90
2023-02-26T17:19:27.214Z,2.08
2023-02-26T17:21:55.108Z,1.58
2023-02-26T17:24:26.421Z,1.80
2023-02-26T17:26:55.264Z,1.35
2023-02-26T17:29:23.396Z,1.77
2023-02-26T17:31:51.655Z,1.73
2023-02-26T17:34:22.808Z,2.33
2023-02-26T17:36:50.083Z,1.98
2023-02-26T17:39:17.325Z,2.17
2023-02-26T17:41:44.755Z,2.38
2023-02-26T17:44:12.276Z,2.00
2023-02-26T17:46:39.607Z,1.88
2023-02-26T17:49:07.107Z,1.83
2023-02-26T17:51:34.650Z,1.77
2023-02-26T17:54:02.205Z,1.60
2023-02-26T17:56:30.423Z,1.40
2023-02-26T17:58:57.993Z,1.25
2023-02-26T18:01:28.141Z,1.13
2023-02-26T18:03:56.094Z,1.10
2023-02-26T18:06:23.266Z,1.70
2023-02-26T18:08:50.939Z,1.95
2023-02-26T18:11:20.538Z,1.77
2023-02-26T18:13:47.884Z,1.40
2023-02-26T18:16:21.735Z,1.40
2023-02-26T18:18:49.073Z,1.60
2023-02-26T18:21:16.141Z,1.48
2023-02-26T18:23:43.300Z,2.75
2023-02-26T18:26:11.418Z,1.70
2023-02-26T18:28:38.423Z,1.83
2023-02-26T18:31:09.172Z,3.05
2023-02-26T18:33:38.598Z,1.77
2023-02-26T18:36:06.107Z,1.73
2023-02-26T18:38:33.438Z,1.65
2023-02-26T18:41:02.170Z,2.47
2023-02-26T18:43:29.634Z,1.90
2023-02-26T18:46:01.128Z,8.27
2023-02-26T18:48:28.489Z,3.90
2023-02-26T18:50:55.939Z,3.28
2023-02-26T18:53:23.726Z,3.17
2023-02-26T18:55:52.753Z,3.85
2023-02-26T18:58:20.455Z,3.30
2023-02-26T19:00:47.563Z,3.00
2023-02-26T19:03:14.846Z,2.28
2023-02-26T19:05:42.270Z,3.47
2023-02-26T19:08:09.410Z,4.28
2023-02-26T19:10:36.887Z,2.42
2023-02-26T19:13:04.353Z,2.17
2023-02-26T19:15:31.531Z,2.45
2023-02-26T19:17:58.683Z,2.10
2023-02-26T19:20:25.776Z,2.05
2023-02-26T19:22:52.881Z,1.95
2023-02-26T19:25:23.865Z,2.13
2023-02-26T19:27:53.183Z,2.25
2023-02-26T19:30:21.040Z,1.90
2023-02-26T19:32:48.243Z,2.10
2023-02-26T19:35:15.388Z,1.48
2023-02-26T19:37:43.150Z,2.03
2023-02-26T19:40:11.182Z,2.30
2023-02-26T19:42:38.433Z,2.53
2023-02-26T19:45:05.871Z,2.72
2023-02-26T19:47:32.919Z,2.10
2023-02-26T19:50:00.107Z,1.98
2023-02-26T19:52:31.025Z,2.47
2023-02-26T19:54:58.373Z,1.88
2023-02-26T19:57:25.477Z,1.60
2023-02-26T19:59:52.547Z,1.70
2023-02-26T20:02:19.558Z,1.88
2023-02-26T20:04:46.609Z,2.00
2023-02-26T20:07:13.745Z,1.60
2023-02-26T20:09:40.793Z,1.95
2023-02-26T20:12:07.974Z,1.30
2023-02-26T20:14:35.101Z,1.25
2023-02-26T20:17:02.317Z,2.22
2023-02-26T20:19:29.348Z,1.70
2023-02-26T20:21:56.405Z,1.70
2023-02-26T20:24:23.495Z,1.58
2023-02-26T20:26:51.077Z,1.52
2023-02-26T20:29:18.629Z,1.67
2023-02-26T20:31:49.284Z,1.50
2023-02-26T20:34:20.343Z,2.05
2023-02-26T20:36:50.721Z,2.08
2023-02-26T20:39:21.108Z,2.60
2023-02-26T20:41:48.415Z,2.33
2023-02-26T20:44:15.577Z,2.72
2023-02-26T20:46:42.704Z,2.63
2023-02-26T20:49:11.546Z,2.55
2023-02-26T20:51:41.962Z,2.40
2023-02-26T20:54:09.621Z,3.13
2023-02-26T20:56:36.732Z,3.17
2023-02-26T20:59:03.747Z,3.50
2023-02-26T21:01:35.636Z,3.13
2023-02-26T21:04:07.003Z,3.20
2023-02-26T21:06:34.070Z,3.30
2023-02-26T21:09:01.372Z,3.22
2023-02-26T21:11:31.105Z,3.38
2023-02-26T21:14:01.748Z,4.32
2023-02-26T21:16:28.953Z,4.57
2023-02-26T21:18:56.399Z,2.17
2023-02-26T21:21:23.511Z,2.50
2023-02-26T21:23:52.910Z,2.47
2023-02-26T21:26:20.652Z,2.78
2023-02-26T21:28:48.487Z,1.88
2023-02-26T21:31:16.072Z,2.25
2023-02-26T21:33:44.115Z,2.05
2023-02-26T21:36:11.633Z,2.05
2023-02-26T21:38:38.842Z,1.80
2023-02-26T21:41:05.914Z,1.73
2023-02-26T21:43:32.964Z,1.80
2023-02-26T21:46:00.065Z,2.17
2023-02-26T21:48:27.205Z,2.22
2023-02-26T21:50:56.478Z,2.55
2023-02-26T21:53:23.619Z,1.98
2023-02-26T21:55:50.698Z,2.38
2023-02-26T21:58:17.761Z,2.60
2023-02-26T22:00:44.900Z,2.55
2023-02-26T22:03:12.091Z,2.65
2023-02-26T22:05:39.174Z,3.10
2023-02-26T22:08:06.546Z,3.53
2023-02-26T22:10:33.664Z,2.97
2023-02-26T22:13:00.734Z,3.03
2023-02-26T22:15:27.757Z,2.80
2023-02-26T22:17:54.833Z,2.40
2023-02-26T22:20:21.902Z,2.78
2023-02-26T22:22:49.015Z,2.05
2023-02-26T22:25:16.103Z,2.30
2023-02-26T22:27:43.152Z,3.13
2023-02-26T22:30:10.466Z,2.97
2023-02-26T22:32:37.534Z,2.42
2023-02-26T22:35:05.522Z,2.47
2023-02-26T22:37:32.965Z,3.03
2023-02-26T22:40:00.000Z,2.22
2023-02-26T22:42:27.036Z,2.13
2023-02-26T22:44:54.121Z,3.60
2023-02-26T22:47:21.182Z,3.47
2023-02-26T22:49:48.858Z,3.53
2023-02-26T22:52:15.936Z,3.67
2023-02-26T22:54:45.637Z,3.28
2023-02-26T22:57:12.703Z,5.20
2023-02-26T22:59:39.734Z,3.70
2023-02-26T23:02:06.896Z,3.13
2023-02-26T23:04:34.002Z,3.05
2023-02-26T23:07:01.133Z,3.60
2023-02-26T23:09:28.249Z,2.88
2023-02-26T23:11:55.300Z,2.40
2023-02-26T23:14:22.708Z,2.53
2023-02-26T23:16:49.797Z,2.25
2023-02-26T23:19:16.860Z,1.80
2023-02-26T23:21:43.944Z,1.90
2023-02-26T23:24:11.654Z,1.52
2023-02-26T23:26:38.675Z,1.90
2023-02-26T23:29:06.403Z,1.23
2023-02-26T23:31:33.953Z,1.88
2023-02-26T23:34:01.236Z,1.75
2023-02-26T23:36:28.316Z,1.65
2023-02-26T23:38:55.441Z,1.50
2023-02-26T23:41:22.482Z,1.40
2023-02-26T23:43:49.614Z,1.55
2023-02-26T23:46:16.720Z,1.40
2023-02-26T23:48:43.804Z,1.70
2023-02-26T23:51:10.831Z,1.48
2023-02-26T23:53:37.877Z,1.67
2023-02-26T23:56:05.177Z,1.30
2023-02-26T23:58:32.273Z,1.83
